Dassel, Germany

6:58 PM CEST on October 23, 2014 (GMT +0200)
Pestalozziweg | Change Station
CLOSE
Current Station
Personal Weather Station
Location: Delligsen, NIEDERSACHSEN
Elevation: 459 ft
Nearby Weather Stations

Elev 459 ft 51.94 °N, 9.80 °E | Updated 3 minutes ago

Mostly Cloudy
Mostly Cloudy
52.7 °F
Feels Like 52.7 °F
N
0.0
Wind Variable Wind from ENE
Gusts 0.0 mph

Today
High -- | Low -- °F
--% Chance of Precip.
Yesterday
High -- | Low -- °F
Precip. -- in
7:59 AM 6:11 PM
Waning Crescent, 0% visible
Pressure 30.18 in
Visibility 6.2 miles
Clouds Mostly Cloudy 3800 ft
Dew Point 47 °F
Humidity 82%
Rainfall 0.00 in
Snow Depth Not available.
UV 0 out of 12
Pollen Not available.
Air Quality Not available.
Flu Activity Not available.
METAR EDDV 231650Z 22003KT 190V250 9999 BKN038 11/09 Q1022 NOSIG

More Conditions Fewer Conditions

Pressure 30.18 in
Visibility 6.2 miles
Clouds Mostly Cloudy 3800 ft
Dew Point 47 °F
Humidity 82%
Rainfall 0.00 in
Snow Depth Not available.
UV 0 out of 12
Pollen Not available.
Air Quality Not available.
Flu Activity Not available.
METAR EDDV 231650Z 22003KT 190V250 9999 BKN038 11/09 Q1022 NOSIG

More Conditions Fewer Conditions

10-Day Weather Forecast

Almanac

Astronomy

Oct. 23, 2014 Rise Set
Actual Time 7:59 AM CEST 6:11 PM CEST
Civil Twilight 7:24 AM CEST 6:45 PM CEST
Nautical Twilight 6:45 AM CEST 7:24 PM CEST
Astronomical Twilight 6:06 AM CEST 8:03 PM CEST
Moon 7:18 AM CEST 6:04 PM CEST
Length of Visible Light 11h 20m
Length of Day
10h 11m
Tomorrow will be 3m 46s shorter.
Waning Crescent, 0% of the Moon is Illuminated
Today
Waning Crescent
Oct 23
New
Oct 30
First Quarter
Nov 6
Full
Nov 14
Last Quarter

Today's Extremes

Country Highs Country Lows

Community

WunderPhotos

Upload Photos

1,764,308 photos uploaded!

WunderBlogs® & News

Nearby

Snow Depth

Not available.

Earthquake Activity

City Distance Mag. Time & Date
No recent earthquake activity has been reported nearby.
Minimum magnitude displayed is 2.5.

Coastal Water Temperatures

Place Temperature
No Stations Reporting

Nearby Weather Stations